createdAt,value
2018-09-10T00:02:22.352Z,2.00
2018-09-10T00:04:50.787Z,2.33
2018-09-10T00:07:19.198Z,2.27
2018-09-10T00:09:47.592Z,2.10
2018-09-10T00:12:15.990Z,2.77
2018-09-10T00:14:44.368Z,2.33
2018-09-10T00:17:12.756Z,2.40
2018-09-10T00:19:41.140Z,1.77
2018-09-10T00:22:09.532Z,1.87
2018-09-10T00:24:37.946Z,2.10
2018-09-10T00:27:06.365Z,2.30
2018-09-10T00:29:34.780Z,2.70
2018-09-10T00:32:03.182Z,2.20
2018-09-10T00:34:31.589Z,2.80
2018-09-10T00:37:00.013Z,2.10
2018-09-10T00:39:28.399Z,2.10
2018-09-10T00:41:56.872Z,1.93
2018-09-10T00:44:25.252Z,2.20
2018-09-10T00:46:53.644Z,2.37
2018-09-10T00:49:22.033Z,2.20
2018-09-10T00:51:50.960Z,2.43
2018-09-10T00:54:19.348Z,2.23
2018-09-10T00:56:47.752Z,2.30
2018-09-10T00:59:16.187Z,2.70
2018-09-10T01:01:44.635Z,2.10
2018-09-10T01:04:13.044Z,2.00
2018-09-10T01:06:41.429Z,2.67
2018-09-10T01:09:10.856Z,2.73
2018-09-10T01:11:39.938Z,2.40
2018-09-10T01:14:08.944Z,2.60
2018-09-10T01:16:37.356Z,2.50
2018-09-10T01:19:05.790Z,2.43
2018-09-10T01:21:34.181Z,2.67
2018-09-10T01:24:02.580Z,2.63
2018-09-10T01:26:30.971Z,2.53
2018-09-10T01:28:59.402Z,3.80
2018-09-10T01:31:27.876Z,2.50
2018-09-10T01:34:01.681Z,2.60
2018-09-10T01:36:30.058Z,2.67
2018-09-10T01:38:58.448Z,2.80
2018-09-10T01:41:26.857Z,3.03
2018-09-10T01:43:55.281Z,2.97
2018-09-10T01:46:23.893Z,2.50
2018-09-10T01:48:52.301Z,3.53
2018-09-10T01:51:20.676Z,2.70
2018-09-10T01:53:49.068Z,3.30
2018-09-10T01:56:17.491Z,3.30
2018-09-10T01:58:45.879Z,2.70
2018-09-10T02:01:14.309Z,3.00
2018-09-10T02:03:42.721Z,3.13
2018-09-10T02:06:11.152Z,2.93
2018-09-10T02:08:39.560Z,2.70
2018-09-10T02:11:07.996Z,3.17
2018-09-10T02:13:36.400Z,2.80
2018-09-10T02:16:04.937Z,3.67
2018-09-10T02:18:33.397Z,2.80
2018-09-10T02:21:01.809Z,3.47
2018-09-10T02:23:30.222Z,2.63
2018-09-10T02:25:58.630Z,2.67
2018-09-10T02:28:27.011Z,2.73
2018-09-10T02:30:55.452Z,2.70
2018-09-10T02:33:23.845Z,2.87
2018-09-10T02:35:52.252Z,2.97
2018-09-10T02:38:20.650Z,2.33
2018-09-10T02:40:49.052Z,3.00
2018-09-10T02:43:17.476Z,3.00
2018-09-10T02:45:45.880Z,2.67
2018-09-10T02:48:14.278Z,3.17
2018-09-10T02:50:42.686Z,3.50
2018-09-10T02:53:11.078Z,3.10
2018-09-10T02:55:39.599Z,2.97
2018-09-10T02:58:08.000Z,3.00
2018-09-10T03:00:36.426Z,3.20
2018-09-10T03:03:05.134Z,3.13
2018-09-10T03:05:33.829Z,3.70
2018-09-10T03:08:02.224Z,3.00
2018-09-10T03:10:30.612Z,3.20
2018-09-10T03:12:59.001Z,3.67
2018-09-10T03:15:28.241Z,3.17
2018-09-10T03:17:56.723Z,3.27
2018-09-10T03:20:25.083Z,3.80
2018-09-10T03:22:53.528Z,3.43
2018-09-10T03:25:21.911Z,3.30
2018-09-10T03:27:50.311Z,3.33
2018-09-10T03:30:18.685Z,4.00
2018-09-10T03:32:47.090Z,4.07
2018-09-10T03:35:15.496Z,4.03
2018-09-10T03:37:43.976Z,3.67
2018-09-10T03:40:12.376Z,3.40
2018-09-10T03:42:40.841Z,4.27
2018-09-10T03:45:09.248Z,4.40
2018-09-10T03:47:37.701Z,4.30
2018-09-10T03:50:06.141Z,4.07
2018-09-10T03:52:34.553Z,4.10
2018-09-10T03:55:02.950Z,4.37
2018-09-10T03:57:31.336Z,4.53
2018-09-10T03:59:59.725Z,4.40
2018-09-10T04:02:28.109Z,5.10
2018-09-10T04:04:56.541Z,5.50
2018-09-10T04:07:24.941Z,5.27
2018-09-10T04:09:53.458Z,5.07
2018-09-10T04:12:21.854Z,5.87
2018-09-10T04:14:50.278Z,5.03
2018-09-10T04:17:18.726Z,6.30
2018-09-10T04:19:47.090Z,5.50
2018-09-10T04:22:15.489Z,5.70
2018-09-10T04:24:43.963Z,5.13
2018-09-10T04:27:12.369Z,5.17
2018-09-10T04:29:40.753Z,5.83
2018-09-10T04:32:09.160Z,6.20
2018-09-10T04:34:37.598Z,5.50
2018-09-10T04:37:05.979Z,5.77
2018-09-10T04:39:34.420Z,6.20
2018-09-10T04:42:02.916Z,5.80
2018-09-10T04:44:31.312Z,5.47
2018-09-10T04:46:59.720Z,6.50
2018-09-10T04:49:28.109Z,6.47
2018-09-10T04:51:56.496Z,6.90
2018-09-10T04:54:24.906Z,8.23
2018-09-10T04:56:53.321Z,8.50
2018-09-10T04:59:21.723Z,7.37
2018-09-10T05:01:50.096Z,9.00
2018-09-10T05:04:19.547Z,9.43
2018-09-10T05:06:48.992Z,9.27
2018-09-10T05:09:17.532Z,8.87
2018-09-10T05:11:46.352Z,9.37
2018-09-10T05:14:14.736Z,10.00
2018-09-10T05:16:43.152Z,9.63
2018-09-10T05:19:11.528Z,9.87
2018-09-10T05:21:39.938Z,11.20
2018-09-10T05:24:08.399Z,10.50
2018-09-10T05:26:36.819Z,9.57
2018-09-10T05:29:05.312Z,10.07
2018-09-10T05:31:33.749Z,11.20
2018-09-10T05:34:03.386Z,10.50
2018-09-10T05:36:31.804Z,9.83
2018-09-10T05:39:00.617Z,10.70
2018-09-10T05:41:29.065Z,9.93
2018-09-10T05:43:57.413Z,11.73
2018-09-10T05:46:25.840Z,10.03
2018-09-10T05:48:54.233Z,10.97
2018-09-10T05:51:22.732Z,10.33
2018-09-10T05:53:51.116Z,11.67
2018-09-10T05:56:19.540Z,9.60
2018-09-10T05:58:47.927Z,12.17
2018-09-10T06:01:16.348Z,10.83
2018-09-10T06:03:44.764Z,10.77
2018-09-10T06:06:13.191Z,10.80
2018-09-10T06:08:41.598Z,9.60
2018-09-10T06:11:10.003Z,11.10
2018-09-10T06:13:38.441Z,10.83
2018-09-10T06:16:06.856Z,11.50
2018-09-10T06:18:35.282Z,11.40
2018-09-10T06:21:03.741Z,9.90
2018-09-10T06:23:32.179Z,10.80
2018-09-10T06:26:00.657Z,10.73
2018-09-10T06:28:29.093Z,10.70
2018-09-10T06:30:57.497Z,10.73
2018-09-10T06:33:25.920Z,11.00
2018-09-10T06:35:54.334Z,11.60
2018-09-10T06:38:22.829Z,10.67
2018-09-10T06:40:51.223Z,10.70
2018-09-10T06:43:19.653Z,10.40
2018-09-10T06:45:48.061Z,10.57
2018-09-10T06:48:16.636Z,10.97
2018-09-10T06:50:45.056Z,9.87
2018-09-10T06:53:13.463Z,9.90
2018-09-10T06:55:41.858Z,10.40
2018-09-10T06:58:10.318Z,10.17
2018-09-10T07:00:38.745Z,10.33
2018-09-10T07:03:06.958Z,10.57
2018-09-10T07:05:35.403Z,10.90
2018-09-10T07:08:04.029Z,10.33
2018-09-10T07:10:32.456Z,10.50
2018-09-10T07:13:00.934Z,10.47
2018-09-10T07:15:29.312Z,10.77
2018-09-10T07:17:57.705Z,11.77
2018-09-10T07:20:26.153Z,10.77
2018-09-10T07:22:54.568Z,11.47
2018-09-10T07:25:22.974Z,11.27
2018-09-10T07:27:51.398Z,11.33
2018-09-10T07:30:19.877Z,10.60
2018-09-10T07:32:48.368Z,12.83
2018-09-10T07:35:16.777Z,11.10
2018-09-10T07:37:45.242Z,12.03
2018-09-10T07:40:13.661Z,13.40
2018-09-10T07:42:42.068Z,10.87
2018-09-10T07:45:10.484Z,12.60
2018-09-10T07:47:38.864Z,12.63
2018-09-10T07:50:07.334Z,13.20
2018-09-10T07:52:35.728Z,12.23
2018-09-10T07:55:04.172Z,12.07
2018-09-10T07:57:32.580Z,12.07
2018-09-10T08:00:01.460Z,12.17
2018-09-10T08:02:30.064Z,12.60
2018-09-10T08:04:58.468Z,12.57
2018-09-10T08:07:26.915Z,12.13
2018-09-10T08:09:55.312Z,11.73
2018-09-10T08:12:23.832Z,13.20
2018-09-10T08:14:52.212Z,12.30
2018-09-10T08:17:20.671Z,11.77
2018-09-10T08:19:49.070Z,12.27
2018-09-10T08:22:17.528Z,11.00
2018-09-10T08:24:45.909Z,11.03
2018-09-10T08:27:14.721Z,10.70
2018-09-10T08:29:43.196Z,11.07
2018-09-10T08:32:11.751Z,10.30
2018-09-10T08:34:40.133Z,11.60
2018-09-10T08:37:08.543Z,10.20
2018-09-10T08:39:36.937Z,9.87
2018-09-10T08:42:05.521Z,10.40
2018-09-10T08:44:33.948Z,9.13
2018-09-10T08:47:02.362Z,10.67
2018-09-10T08:49:30.780Z,10.70
2018-09-10T08:51:59.263Z,10.97
2018-09-10T08:54:27.723Z,10.33
2018-09-10T08:56:56.095Z,11.30
2018-09-10T08:59:24.482Z,9.77
2018-09-10T09:01:52.939Z,9.60
2018-09-10T09:04:21.412Z,9.60
2018-09-10T09:06:49.999Z,9.47
2018-09-10T09:09:18.408Z,9.47
2018-09-10T09:11:46.842Z,10.03
2018-09-10T09:14:15.256Z,9.87
2018-09-10T09:16:43.648Z,9.27
2018-09-10T09:19:12.068Z,10.03
2018-09-10T09:21:40.465Z,9.07
2018-09-10T09:24:08.898Z,9.83
2018-09-10T09:26:37.334Z,8.60
2018-09-10T09:29:06.019Z,8.30
2018-09-10T09:31:34.421Z,10.80
2018-09-10T09:34:02.831Z,10.70
2018-09-10T09:36:36.654Z,10.10
2018-09-10T09:39:12.204Z,6.57
2018-09-10T09:41:46.029Z,6.73
2018-09-10T09:44:19.784Z,6.70
2018-09-10T09:46:48.190Z,6.60
2018-09-10T09:49:16.608Z,6.67
2018-09-10T09:51:45.042Z,6.40
2018-09-10T09:54:13.445Z,6.10
2018-09-10T09:56:41.856Z,6.27
2018-09-10T09:59:10.296Z,3.63
2018-09-10T10:01:44.761Z,6.00
2018-09-10T10:04:13.684Z,4.77
2018-09-10T10:06:42.038Z,5.90
2018-09-10T10:09:11.707Z,4.50
2018-09-10T10:11:40.651Z,4.33
2018-09-10T10:14:09.772Z,3.07
2018-09-10T10:16:38.375Z,3.97
2018-09-10T10:19:06.947Z,3.17
2018-09-10T10:21:35.643Z,2.33
2018-09-10T10:24:04.069Z,3.10
2018-09-10T10:26:32.486Z,2.77
2018-09-10T10:29:00.882Z,3.47
2018-09-10T10:31:29.405Z,2.90
2018-09-10T10:33:57.802Z,2.77
2018-09-10T10:36:26.320Z,4.20
2018-09-10T10:38:54.731Z,3.10
2018-09-10T10:41:23.149Z,2.63
2018-09-10T10:43:51.542Z,2.70
2018-09-10T10:46:19.957Z,3.07
2018-09-10T10:48:48.344Z,2.27
2018-09-10T10:51:16.781Z,3.10
2018-09-10T10:53:45.289Z,4.00
2018-09-10T10:56:13.656Z,3.90
2018-09-10T10:58:42.048Z,3.50
2018-09-10T11:01:10.440Z,3.20
2018-09-10T11:03:38.992Z,2.70
2018-09-10T11:06:07.617Z,2.67
2018-09-10T11:08:36.049Z,2.43
2018-09-10T11:11:04.500Z,2.70
2018-09-10T11:13:32.961Z,2.33
2018-09-10T11:16:01.356Z,2.37
2018-09-10T11:18:29.864Z,2.30
2018-09-10T11:20:58.257Z,3.10
2018-09-10T11:23:26.665Z,2.57
2018-09-10T11:25:55.061Z,3.00
2018-09-10T11:28:24.011Z,2.73
2018-09-10T11:30:52.450Z,2.90
2018-09-10T11:33:20.890Z,2.53
2018-09-10T11:35:49.269Z,3.20
2018-09-10T11:38:17.680Z,3.10
2018-09-10T11:40:46.066Z,2.93
2018-09-10T11:43:14.480Z,3.53
2018-09-10T11:45:43.220Z,3.07
2018-09-10T11:48:11.648Z,2.90
2018-09-10T11:50:40.062Z,2.23
2018-09-10T11:53:08.485Z,1.37
2018-09-10T11:55:36.925Z,2.60
2018-09-10T11:58:05.469Z,1.93
2018-09-10T12:00:33.909Z,2.40
2018-09-10T12:03:02.412Z,1.93
2018-09-10T12:05:30.807Z,2.23
2018-09-10T12:07:59.188Z,2.53
2018-09-10T12:10:27.599Z,2.53
2018-09-10T12:12:56.013Z,3.00
2018-09-10T12:15:24.451Z,2.70
2018-09-10T12:17:52.873Z,3.63
2018-09-10T12:20:21.272Z,2.80
2018-09-10T12:22:49.678Z,2.83
2018-09-10T12:25:18.090Z,3.03
2018-09-10T12:27:46.473Z,3.47
2018-09-10T12:30:14.896Z,3.13
2018-09-10T12:32:43.276Z,3.53
2018-09-10T12:35:11.676Z,2.73
2018-09-10T12:37:40.202Z,3.20
2018-09-10T12:40:08.640Z,2.93
2018-09-10T12:42:37.057Z,2.90
2018-09-10T12:45:05.793Z,2.97
2018-09-10T12:47:34.208Z,2.83
2018-09-10T12:50:02.654Z,2.90
2018-09-10T12:52:31.044Z,2.70
2018-09-10T12:54:59.464Z,2.80
2018-09-10T12:57:27.892Z,2.70
2018-09-10T12:59:56.398Z,2.77
2018-09-10T13:02:24.856Z,2.40
2018-09-10T13:04:53.428Z,2.37
2018-09-10T13:07:21.833Z,2.30
2018-09-10T13:09:50.355Z,2.90
2018-09-10T13:12:18.774Z,2.83
2018-09-10T13:14:47.157Z,2.13
2018-09-10T13:17:15.601Z,2.90
2018-09-10T13:19:44.040Z,2.13
2018-09-10T13:22:13.640Z,2.70
2018-09-10T13:24:43.323Z,2.50
2018-09-10T13:27:11.742Z,3.00
2018-09-10T13:29:40.229Z,2.30
2018-09-10T13:32:08.629Z,2.73
2018-09-10T13:34:37.069Z,2.53
2018-09-10T13:37:05.561Z,3.10
2018-09-10T13:39:33.944Z,3.00
2018-09-10T13:42:02.589Z,1.80
2018-09-10T13:44:31.052Z,2.30
2018-09-10T13:46:59.496Z,2.97
2018-09-10T13:49:27.950Z,2.50
2018-09-10T13:51:56.692Z,2.10
2018-09-10T13:54:25.213Z,2.67
2018-09-10T13:56:53.713Z,1.90
2018-09-10T13:59:22.131Z,2.53
2018-09-10T14:01:50.557Z,2.50
2018-09-10T14:04:19.068Z,2.13
2018-09-10T14:06:47.492Z,2.60
2018-09-10T14:09:15.915Z,2.30
2018-09-10T14:11:44.400Z,2.47
2018-09-10T14:14:12.846Z,2.63
2018-09-10T14:16:41.233Z,2.73
2018-09-10T14:19:09.644Z,2.67
2018-09-10T14:21:38.212Z,2.93
2018-09-10T14:24:06.789Z,2.50
2018-09-10T14:26:35.218Z,3.53
2018-09-10T14:29:03.637Z,2.30
2018-09-10T14:31:32.304Z,3.13
2018-09-10T14:34:00.733Z,2.90
2018-09-10T14:36:29.110Z,2.40
2018-09-10T14:38:57.553Z,2.80
2018-09-10T14:41:26.049Z,3.00
2018-09-10T14:43:54.570Z,3.17
2018-09-10T14:46:23.526Z,3.23
2018-09-10T14:48:51.966Z,2.40
2018-09-10T14:51:20.520Z,3.37
2018-09-10T14:53:49.138Z,2.83
2018-09-10T14:56:17.724Z,3.10
2018-09-10T14:58:46.141Z,2.93
2018-09-10T15:01:14.584Z,2.97
2018-09-10T15:03:43.869Z,3.27
2018-09-10T15:06:12.609Z,2.90
2018-09-10T15:08:41.227Z,2.77
2018-09-10T15:11:09.658Z,2.80
2018-09-10T15:13:38.392Z,3.10
2018-09-10T15:16:06.835Z,2.77
2018-09-10T15:18:35.413Z,3.10
2018-09-10T15:21:03.807Z,2.97
2018-09-10T15:23:32.252Z,3.17
2018-09-10T15:26:00.858Z,3.13
2018-09-10T15:28:29.703Z,3.03
2018-09-10T15:30:59.011Z,3.67
2018-09-10T15:33:27.490Z,3.17
2018-09-10T15:35:55.928Z,3.00
2018-09-10T15:38:24.308Z,2.70
2018-09-10T15:40:52.728Z,2.77
2018-09-10T15:43:21.357Z,3.00
2018-09-10T15:45:49.864Z,3.27
2018-09-10T15:48:18.244Z,3.30
2018-09-10T15:50:46.691Z,3.20
2018-09-10T15:53:15.142Z,2.80
2018-09-10T15:55:43.517Z,3.70
2018-09-10T15:58:11.939Z,3.17
2018-09-10T16:00:40.384Z,3.23
2018-09-10T16:03:08.788Z,3.10
2018-09-10T16:05:37.745Z,3.00
2018-09-10T16:08:06.190Z,3.63
2018-09-10T16:10:35.230Z,3.60
2018-09-10T16:13:03.669Z,3.67
2018-09-10T16:15:32.512Z,4.20
2018-09-10T16:18:01.061Z,4.17
2018-09-10T16:20:29.477Z,3.27
2018-09-10T16:22:57.984Z,3.10
2018-09-10T16:25:26.386Z,3.50
2018-09-10T16:27:54.797Z,3.50
2018-09-10T16:30:23.239Z,3.27
2018-09-10T16:32:51.689Z,3.80
2018-09-10T16:35:20.150Z,3.83
2018-09-10T16:37:56.897Z,3.40
2018-09-10T16:40:25.685Z,3.40
2018-09-10T16:42:54.120Z,3.30
2018-09-10T16:45:22.705Z,4.03
2018-09-10T16:47:51.230Z,3.67
2018-09-10T16:50:19.694Z,3.40
2018-09-10T16:52:48.132Z,4.10
2018-09-10T16:55:16.647Z,3.97
2018-09-10T16:57:45.191Z,3.57
2018-09-10T17:00:13.629Z,3.93
2018-09-10T17:02:42.457Z,4.00
2018-09-10T17:05:10.907Z,3.47
2018-09-10T17:07:39.485Z,4.57
2018-09-10T17:10:08.015Z,4.30
2018-09-10T17:12:36.490Z,4.50
2018-09-10T17:15:05.201Z,4.07
2018-09-10T17:17:33.656Z,3.80
2018-09-10T17:20:02.151Z,4.37
2018-09-10T17:22:30.678Z,4.63
2018-09-10T17:24:59.026Z,4.10
2018-09-10T17:27:27.462Z,4.33
2018-09-10T17:29:55.949Z,4.50
2018-09-10T17:32:24.399Z,4.63
2018-09-10T17:34:52.867Z,4.83
2018-09-10T17:37:21.289Z,4.30
2018-09-10T17:39:49.729Z,4.57
2018-09-10T17:42:18.370Z,5.17
2018-09-10T17:44:46.826Z,3.83
2018-09-10T17:47:15.385Z,4.50
2018-09-10T17:49:43.754Z,4.70
2018-09-10T17:52:12.188Z,4.47
2018-09-10T17:54:40.853Z,4.40
2018-09-10T17:57:09.403Z,4.93
2018-09-10T17:59:37.813Z,4.63
2018-09-10T18:02:06.481Z,4.97
2018-09-10T18:04:34.950Z,5.13
2018-09-10T18:07:03.481Z,4.50
2018-09-10T18:09:31.905Z,4.33
2018-09-10T18:12:00.441Z,4.60
2018-09-10T18:14:28.881Z,4.23
2018-09-10T18:16:57.402Z,4.43
2018-09-10T18:19:25.837Z,4.43
2018-09-10T18:21:54.288Z,4.10
2018-09-10T18:24:22.751Z,4.63
2018-09-10T18:26:51.192Z,3.47
2018-09-10T18:29:19.621Z,4.37
2018-09-10T18:31:48.077Z,3.90
2018-09-10T18:34:16.582Z,3.97
2018-09-10T18:36:45.011Z,4.50
2018-09-10T18:39:13.426Z,4.37
2018-09-10T18:41:41.913Z,5.07
2018-09-10T18:44:10.392Z,5.77
2018-09-10T18:46:39.108Z,6.90
2018-09-10T18:49:07.811Z,5.80
2018-09-10T18:51:36.271Z,5.93
2018-09-10T18:54:04.740Z,5.20
2018-09-10T18:56:33.213Z,7.23
2018-09-10T18:59:01.653Z,5.97
2018-09-10T19:01:30.160Z,5.80
2018-09-10T19:03:58.592Z,5.80
2018-09-10T19:06:27.025Z,4.67
2018-09-10T19:08:55.447Z,5.17
2018-09-10T19:11:23.919Z,4.40
2018-09-10T19:13:52.360Z,4.47
2018-09-10T19:16:20.953Z,5.10
2018-09-10T19:18:49.395Z,4.73
2018-09-10T19:21:17.817Z,5.03
2018-09-10T19:23:46.313Z,4.97
2018-09-10T19:26:14.762Z,4.90
2018-09-10T19:28:43.207Z,5.43
2018-09-10T19:31:11.747Z,5.20
2018-09-10T19:33:41.237Z,4.97
2018-09-10T19:36:09.748Z,5.70
2018-09-10T19:38:38.213Z,4.97
2018-09-10T19:41:06.715Z,6.37
2018-09-10T19:43:35.172Z,5.90
2018-09-10T19:46:03.598Z,6.23
2018-09-10T19:48:32.056Z,6.23
2018-09-10T19:51:00.488Z,5.10
2018-09-10T19:53:28.962Z,5.27
2018-09-10T19:55:58.125Z,5.30
2018-09-10T19:58:26.590Z,4.97
2018-09-10T20:00:55.024Z,5.13
2018-09-10T20:03:23.478Z,5.20
2018-09-10T20:05:51.880Z,4.70
2018-09-10T20:08:20.309Z,4.60
2018-09-10T20:10:49.598Z,4.77
2018-09-10T20:13:18.055Z,4.20
2018-09-10T20:15:46.573Z,4.50
2018-09-10T20:18:15.024Z,4.67
2018-09-10T20:20:43.567Z,4.50
2018-09-10T20:23:12.020Z,4.10
2018-09-10T20:25:40.465Z,4.67
2018-09-10T20:28:08.910Z,4.13
2018-09-10T20:30:37.374Z,4.50
2018-09-10T20:33:05.799Z,5.30
2018-09-10T20:35:34.209Z,3.90
2018-09-10T20:38:02.676Z,4.77
2018-09-10T20:40:31.109Z,3.77
2018-09-10T20:42:59.568Z,4.70
2018-09-10T20:45:27.997Z,4.20
2018-09-10T20:47:56.571Z,6.17
2018-09-10T20:50:25.008Z,5.93
2018-09-10T20:52:53.389Z,4.47
2018-09-10T20:55:21.788Z,4.73
2018-09-10T20:57:50.213Z,5.43
2018-09-10T21:00:18.649Z,5.73
2018-09-10T21:02:47.055Z,5.30
2018-09-10T21:07:49.548Z,5.00
2018-09-10T21:10:17.985Z,4.73
2018-09-10T21:12:46.476Z,5.00
2018-09-10T21:15:14.964Z,4.50
2018-09-10T21:17:43.353Z,5.70
2018-09-10T21:20:11.873Z,4.83
2018-09-10T21:22:40.294Z,4.90
2018-09-10T21:25:08.780Z,4.90
2018-09-10T21:27:37.199Z,5.70
2018-09-10T21:30:06.623Z,5.17
2018-09-10T21:32:35.046Z,5.40
2018-09-10T21:35:03.462Z,5.10
2018-09-10T21:37:31.857Z,5.60
2018-09-10T21:40:00.252Z,6.03
2018-09-10T21:42:28.689Z,5.30
2018-09-10T21:44:57.084Z,5.73
2018-09-10T21:47:25.500Z,5.87
2018-09-10T21:49:54.113Z,5.90
2018-09-10T21:52:22.560Z,6.77
2018-09-10T21:54:50.973Z,7.00
2018-09-10T21:57:19.385Z,7.13
2018-09-10T21:59:47.772Z,8.80
2018-09-10T22:02:16.193Z,10.13
2018-09-10T22:04:44.688Z,8.50
2018-09-10T22:07:13.151Z,7.77
2018-09-10T22:09:41.544Z,9.50
2018-09-10T22:12:09.964Z,8.73
2018-09-10T22:14:38.494Z,8.47
2018-09-10T22:17:06.994Z,9.00
2018-09-10T22:19:35.416Z,8.00
2018-09-10T22:22:03.833Z,8.90
2018-09-10T22:24:32.248Z,9.30
2018-09-10T22:27:00.620Z,8.60
2018-09-10T22:29:29.025Z,9.57
2018-09-10T22:31:57.405Z,9.90
2018-09-10T22:34:25.852Z,9.10
2018-09-10T22:36:54.268Z,10.27
2018-09-10T22:39:22.715Z,8.43
2018-09-10T22:41:51.113Z,8.73
2018-09-10T22:44:19.563Z,9.93
2018-09-10T22:46:47.933Z,8.93
2018-09-10T22:49:16.359Z,9.17
2018-09-10T22:51:44.766Z,9.40
2018-09-10T22:54:13.187Z,9.10
2018-09-10T22:56:41.573Z,9.40
2018-09-10T22:59:09.970Z,9.50
2018-09-10T23:01:38.365Z,9.37
2018-09-10T23:04:06.786Z,9.60
2018-09-10T23:06:35.196Z,10.37
2018-09-10T23:09:04.837Z,9.60
2018-09-10T23:11:33.233Z,10.07
2018-09-10T23:14:01.667Z,11.10
2018-09-10T23:16:30.075Z,10.10
2018-09-10T23:18:58.457Z,12.07
2018-09-10T23:21:27.088Z,11.40
2018-09-10T23:23:55.481Z,10.90
2018-09-10T23:26:23.912Z,11.10
2018-09-10T23:28:52.317Z,9.53
2018-09-10T23:31:20.717Z,9.53
2018-09-10T23:33:49.137Z,8.77
2018-09-10T23:36:17.572Z,8.60
2018-09-10T23:38:45.989Z,8.30
2018-09-10T23:41:14.387Z,8.43
2018-09-10T23:43:42.782Z,7.43
2018-09-10T23:46:11.277Z,6.53
2018-09-10T23:48:39.680Z,6.73
2018-09-10T23:51:08.112Z,7.63
2018-09-10T23:53:36.536Z,5.50
2018-09-10T23:56:04.965Z,5.80
2018-09-10T23:58:33.368Z,5.20
